createdAt,value
2023-01-12T00:00:32.580Z,10.50
2023-01-12T00:01:35.194Z,11.82
2023-01-12T00:02:37.778Z,10.05
2023-01-12T00:03:39.313Z,12.63
2023-01-12T00:04:42.025Z,12.43
2023-01-12T00:05:43.552Z,11.40
2023-01-12T00:06:46.275Z,19.05
2023-01-12T00:07:47.770Z,11.70
2023-01-12T00:08:51.899Z,8.35
2023-01-12T00:09:53.419Z,10.35
2023-01-12T00:10:56.620Z,8.13
2023-01-12T00:11:58.162Z,11.85
2023-01-12T00:13:00.617Z,11.50
2023-01-12T00:14:04.413Z,9.65
2023-01-12T00:15:08.432Z,11.88
2023-01-12T00:16:33.810Z,9.85
2023-01-12T00:17:36.355Z,9.95
2023-01-12T00:18:37.902Z,9.55
2023-01-12T00:19:41.086Z,10.82
2023-01-12T00:20:47.526Z,16.98
2023-01-12T00:21:59.027Z,11.00
2023-01-12T00:23:01.274Z,10.85
2023-01-12T00:24:06.187Z,6.97
2023-01-12T00:25:08.371Z,10.38
2023-01-12T00:26:11.315Z,9.07
2023-01-12T00:27:16.278Z,15.75
2023-01-12T00:28:17.899Z,6.90
2023-01-12T00:29:20.787Z,15.60
2023-01-12T00:30:22.299Z,6.53
2023-01-12T00:31:26.162Z,9.48
2023-01-12T00:32:28.660Z,7.38
2023-01-12T00:33:31.646Z,6.05
2023-01-12T00:34:34.850Z,9.90
2023-01-12T00:35:36.730Z,5.82
2023-01-12T00:36:39.471Z,6.28
2023-01-12T00:37:42.809Z,11.00
2023-01-12T00:38:45.469Z,9.98
2023-01-12T00:40:01.055Z,9.38
2023-01-12T00:41:06.918Z,15.43
2023-01-12T00:42:27.082Z,7.13
2023-01-12T00:43:56.819Z,9.93
2023-01-12T00:45:16.972Z,7.30
2023-01-12T00:46:19.513Z,12.85
2023-01-12T00:47:22.644Z,12.50
2023-01-12T00:48:26.402Z,16.92
2023-01-12T00:49:27.948Z,6.80
2023-01-12T00:50:35.382Z,9.45
2023-01-12T00:51:37.768Z,7.18
2023-01-12T00:52:44.999Z,10.95
2023-01-12T00:53:50.651Z,6.85
2023-01-12T00:54:53.172Z,9.82
2023-01-12T00:56:00.826Z,9.20
2023-01-12T00:57:06.096Z,9.50
2023-01-12T00:58:08.574Z,6.85
2023-01-12T00:59:10.106Z,7.63
2023-01-12T01:00:13.633Z,10.18
2023-01-12T01:01:15.508Z,6.00
2023-01-12T01:02:18.095Z,12.70
2023-01-12T01:03:21.075Z,7.75
2023-01-12T01:04:23.702Z,12.73
2023-01-12T01:05:26.279Z,5.35
2023-01-12T01:06:29.524Z,9.02
2023-01-12T01:07:31.084Z,10.10
2023-01-12T01:08:33.672Z,12.63
2023-01-12T01:09:35.502Z,14.32
2023-01-12T01:10:37.984Z,4.90
2023-01-12T01:11:39.930Z,13.93
2023-01-12T01:12:43.051Z,7.65
2023-01-12T01:13:45.198Z,17.00
2023-01-12T01:14:48.337Z,7.53
2023-01-12T01:15:49.912Z,7.55
2023-01-12T01:16:52.529Z,12.30
2023-01-12T01:17:54.087Z,16.80
2023-01-12T01:18:58.207Z,16.13
2023-01-12T01:19:59.817Z,8.55
2023-01-12T01:21:02.683Z,10.57
2023-01-12T01:22:04.264Z,12.27
2023-01-12T01:23:06.750Z,8.10
2023-01-12T01:24:19.555Z,13.60
2023-01-12T01:25:22.382Z,12.13
2023-01-12T01:26:25.560Z,10.50
2023-01-12T01:27:28.109Z,10.23
2023-01-12T01:28:32.730Z,10.93
2023-01-12T01:29:35.221Z,11.20
2023-01-12T01:30:36.796Z,10.52
2023-01-12T01:31:39.331Z,9.15
2023-01-12T01:32:41.043Z,10.57
2023-01-12T01:33:44.482Z,8.88
2023-01-12T01:34:48.225Z,11.07
2023-01-12T01:35:50.710Z,7.43
2023-01-12T01:36:52.269Z,6.03
2023-01-12T01:37:54.813Z,9.50
2023-01-12T01:38:56.756Z,13.07
2023-01-12T01:39:59.269Z,13.05
2023-01-12T01:41:02.200Z,11.68
2023-01-12T01:42:04.683Z,9.02
2023-01-12T01:43:06.198Z,8.77
2023-01-12T01:44:41.067Z,12.00
2023-01-12T01:45:44.714Z,7.90
2023-01-12T01:46:51.264Z,7.10
2023-01-12T01:47:58.078Z,18.92
2023-01-12T01:49:11.431Z,6.93
2023-01-12T01:50:19.720Z,3.65
2023-01-12T01:51:23.160Z,6.95
2023-01-12T01:52:28.803Z,11.45
2023-01-12T01:53:36.077Z,7.88
2023-01-12T01:54:42.919Z,16.70
2023-01-12T01:55:51.530Z,7.75
2023-01-12T01:56:56.552Z,6.18
2023-01-12T01:58:02.924Z,11.25
2023-01-12T01:59:09.936Z,15.55
2023-01-12T02:00:14.035Z,7.15
2023-01-12T02:01:26.225Z,9.90
2023-01-12T02:02:29.016Z,11.60
2023-01-12T02:03:36.616Z,4.68
2023-01-12T02:04:49.455Z,7.20
2023-01-12T02:05:57.766Z,8.23
2023-01-12T02:07:02.496Z,10.52
2023-01-12T02:08:10.667Z,7.78
2023-01-12T02:09:18.648Z,10.50
2023-01-12T02:10:21.002Z,6.35
2023-01-12T02:11:41.690Z,11.48
2023-01-12T02:13:01.852Z,9.32
2023-01-12T02:14:22.066Z,14.45
2023-01-12T02:15:47.307Z,7.55
2023-01-12T02:17:03.746Z,9.05
2023-01-12T02:18:17.081Z,8.52
2023-01-12T02:19:39.465Z,8.55
2023-01-12T02:20:52.199Z,9.68
2023-01-12T02:22:28.174Z,11.73
2023-01-12T02:23:49.454Z,10.75
2023-01-12T02:25:18.759Z,15.95
2023-01-12T02:27:08.301Z,10.43
2023-01-12T02:28:53.429Z,12.50
2023-01-12T02:30:23.040Z,12.77
2023-01-12T02:31:41.848Z,11.60
2023-01-12T02:32:53.675Z,17.60
2023-01-12T02:34:05.290Z,8.63
2023-01-12T02:35:20.061Z,11.05
2023-01-12T02:36:37.686Z,9.73
2023-01-12T02:37:49.239Z,13.23
2023-01-12T02:38:57.293Z,7.60
2023-01-12T02:40:06.938Z,10.40
2023-01-12T02:41:18.288Z,8.63
2023-01-12T02:42:42.624Z,16.45
2023-01-12T02:43:45.978Z,12.50
2023-01-12T02:44:53.347Z,5.95
2023-01-12T02:46:01.620Z,11.05
2023-01-12T02:47:08.453Z,13.23
2023-01-12T02:48:17.362Z,16.25
2023-01-12T02:49:22.947Z,8.77
2023-01-12T02:50:35.521Z,15.90
2023-01-12T02:51:40.854Z,11.07
2023-01-12T02:52:48.075Z,9.48
2023-01-12T02:53:53.495Z,10.93
2023-01-12T02:54:57.313Z,17.80
2023-01-12T02:56:02.614Z,9.85
2023-01-12T02:57:07.788Z,12.40
2023-01-12T02:58:14.757Z,11.30
2023-01-12T02:59:20.297Z,14.40
2023-01-12T03:00:23.335Z,13.00
2023-01-12T03:01:27.404Z,10.63
2023-01-12T03:02:31.682Z,16.92
2023-01-12T03:03:35.096Z,10.43
2023-01-12T03:04:37.650Z,13.93
2023-01-12T03:05:40.131Z,9.88
2023-01-12T03:06:45.435Z,12.02
2023-01-12T03:07:51.734Z,8.30
2023-01-12T03:08:54.574Z,8.02
2023-01-12T03:10:02.920Z,5.35
2023-01-12T03:11:12.905Z,12.52
2023-01-12T03:12:20.497Z,10.98
2023-01-12T03:13:25.456Z,7.22
2023-01-12T03:14:29.698Z,7.47
2023-01-12T03:15:34.123Z,16.00
2023-01-12T03:16:36.154Z,14.90
2023-01-12T03:17:44.288Z,12.10
2023-01-12T03:18:51.233Z,11.30
2023-01-12T03:19:55.979Z,9.77
2023-01-12T03:21:04.274Z,10.75
2023-01-12T03:22:17.801Z,8.05
2023-01-12T03:23:25.277Z,7.82
2023-01-12T03:24:30.155Z,4.97
2023-01-12T03:25:35.406Z,12.48
2023-01-12T03:26:42.487Z,6.22
2023-01-12T03:27:48.066Z,6.22
2023-01-12T03:28:55.754Z,12.35
2023-01-12T03:30:00.813Z,9.75
2023-01-12T03:31:09.433Z,13.45
2023-01-12T03:32:11.312Z,11.45
2023-01-12T03:33:15.351Z,7.63
2023-01-12T03:34:17.188Z,7.85
2023-01-12T03:35:24.747Z,8.70
2023-01-12T03:36:39.239Z,8.95
2023-01-12T03:37:46.453Z,11.32
2023-01-12T03:39:00.431Z,13.60
2023-01-12T03:40:09.745Z,9.43
2023-01-12T03:41:20.425Z,9.20
2023-01-12T03:42:27.755Z,10.13
2023-01-12T03:43:38.370Z,6.47
2023-01-12T03:44:50.215Z,8.13
2023-01-12T03:45:59.574Z,9.73
2023-01-12T03:47:08.874Z,12.85
2023-01-12T03:48:17.374Z,11.48
2023-01-12T03:49:29.134Z,13.98
2023-01-12T03:50:35.249Z,9.82
2023-01-12T03:51:41.334Z,14.55
2023-01-12T03:52:45.115Z,7.57
2023-01-12T03:53:50.474Z,13.00
2023-01-12T03:54:53.612Z,11.32
2023-01-12T03:55:59.332Z,7.10
2023-01-12T03:57:02.524Z,9.40
2023-01-12T03:58:05.792Z,6.55
2023-01-12T03:59:09.428Z,10.57
2023-01-12T04:00:19.944Z,12.55
2023-01-12T04:01:21.705Z,8.63
2023-01-12T04:02:24.386Z,7.35
2023-01-12T04:03:27.484Z,10.48
2023-01-12T04:04:30.007Z,5.90
2023-01-12T04:05:31.614Z,9.38
2023-01-12T04:06:34.772Z,6.53
2023-01-12T04:07:37.150Z,9.45
2023-01-12T04:08:40.288Z,9.82
2023-01-12T04:09:52.806Z,5.22
2023-01-12T04:10:56.150Z,5.95
2023-01-12T04:12:13.980Z,6.13
2023-01-12T04:13:16.028Z,5.60
2023-01-12T04:14:18.558Z,9.30
2023-01-12T04:15:20.156Z,10.43
2023-01-12T04:16:22.687Z,9.02
2023-01-12T04:17:25.248Z,8.07
2023-01-12T04:18:29.108Z,10.57
2023-01-12T04:19:30.647Z,5.50
2023-01-12T04:20:33.148Z,8.20
2023-01-12T04:21:53.418Z,9.77
2023-01-12T04:22:54.954Z,9.57
2023-01-12T04:23:56.556Z,7.38
2023-01-12T04:24:59.107Z,8.48
2023-01-12T04:26:02.432Z,4.13
2023-01-12T04:27:04.937Z,9.85
2023-01-12T04:28:06.973Z,3.40
2023-01-12T04:29:09.460Z,11.13
2023-01-12T04:30:12.261Z,7.07
2023-01-12T04:31:14.769Z,5.30
2023-01-12T04:32:17.286Z,4.10
2023-01-12T04:33:19.142Z,6.35
2023-01-12T04:34:23.555Z,11.65
2023-01-12T04:35:25.728Z,13.18
2023-01-12T04:36:28.245Z,10.43
2023-01-12T04:37:35.373Z,10.45
2023-01-12T04:38:46.874Z,6.85
2023-01-12T04:39:48.576Z,5.07
2023-01-12T04:40:54.733Z,10.57
2023-01-12T04:41:57.340Z,5.90
2023-01-12T04:43:07.494Z,5.95
2023-01-12T04:44:12.025Z,6.88
2023-01-12T04:45:15.814Z,8.23
2023-01-12T04:46:17.592Z,4.22
2023-01-12T04:47:20.141Z,4.57
2023-01-12T04:48:22.996Z,9.43
2023-01-12T04:49:28.347Z,7.47
2023-01-12T04:50:31.627Z,4.05
2023-01-12T04:51:33.261Z,5.82
2023-01-12T04:52:36.562Z,4.05
2023-01-12T04:53:38.153Z,7.00
2023-01-12T04:54:40.659Z,6.20
2023-01-12T04:55:43.414Z,4.93
2023-01-12T04:56:45.904Z,11.70
2023-01-12T04:57:47.518Z,2.92
2023-01-12T04:58:49.999Z,6.82
2023-01-12T04:59:51.600Z,10.10
2023-01-12T05:00:54.141Z,11.13
2023-01-12T05:01:57.005Z,6.47
2023-01-12T05:03:02.392Z,5.82
2023-01-12T05:04:06.866Z,6.53
2023-01-12T05:05:11.637Z,4.70
2023-01-12T05:06:13.574Z,12.60
2023-01-12T05:07:16.699Z,6.82
2023-01-12T05:08:37.125Z,8.25
2023-01-12T05:09:57.263Z,3.13
2023-01-12T05:11:01.140Z,6.10
2023-01-12T05:12:03.747Z,5.45
2023-01-12T05:13:05.334Z,7.55
2023-01-12T05:14:07.854Z,6.47
2023-01-12T05:15:15.681Z,5.03
2023-01-12T05:16:20.500Z,6.00
2023-01-12T05:17:23.363Z,4.10
2023-01-12T05:18:27.836Z,7.97
2023-01-12T05:19:29.384Z,5.55
2023-01-12T05:20:33.245Z,3.50
2023-01-12T05:21:35.757Z,6.60
2023-01-12T05:22:37.363Z,6.22
2023-01-12T05:23:40.078Z,5.38
2023-01-12T05:24:41.682Z,6.07
2023-01-12T05:25:44.168Z,5.47
2023-01-12T05:26:45.707Z,2.85
2023-01-12T05:27:48.280Z,6.88
2023-01-12T05:28:50.661Z,9.63
2023-01-12T05:29:53.561Z,6.40
2023-01-12T05:30:55.639Z,3.38
2023-01-12T05:31:58.126Z,2.95
2023-01-12T05:32:59.740Z,7.35
2023-01-12T05:34:02.653Z,7.70
2023-01-12T05:35:05.464Z,6.03
2023-01-12T05:36:11.951Z,12.52
2023-01-12T05:37:13.520Z,4.82
2023-01-12T05:38:15.976Z,6.53
2023-01-12T05:39:17.470Z,9.23
2023-01-12T05:40:20.174Z,4.90
2023-01-12T05:41:22.944Z,3.38
2023-01-12T05:42:40.485Z,9.93
2023-01-12T05:43:54.663Z,7.35
2023-01-12T05:44:56.257Z,6.60
2023-01-12T05:46:03.385Z,4.55
2023-01-12T05:47:05.083Z,4.75
2023-01-12T05:48:09.419Z,3.50
2023-01-12T05:49:10.968Z,6.65
2023-01-12T05:50:13.493Z,6.90
2023-01-12T05:51:17.650Z,5.13
2023-01-12T05:52:21.559Z,5.18
2023-01-12T05:53:23.068Z,6.15
2023-01-12T05:54:26.765Z,3.10
2023-01-12T05:55:28.357Z,2.58
2023-01-12T05:56:32.752Z,6.13
2023-01-12T05:57:34.255Z,6.95
2023-01-12T05:58:37.188Z,4.65
2023-01-12T05:59:38.773Z,4.03
2023-01-12T06:00:41.248Z,5.47
2023-01-12T06:01:44.375Z,7.40
2023-01-12T06:02:46.896Z,3.75
2023-01-12T06:03:49.563Z,1.60
2023-01-12T06:04:52.689Z,4.40
2023-01-12T06:05:55.731Z,8.52
2023-01-12T06:06:59.582Z,6.32
2023-01-12T06:08:02.677Z,5.68
2023-01-12T06:09:05.745Z,8.07
2023-01-12T06:10:08.337Z,10.57
2023-01-12T06:11:32.069Z,5.38
2023-01-12T06:12:51.682Z,4.63
2023-01-12T06:13:59.235Z,6.97
2023-01-12T06:15:01.772Z,7.35
2023-01-12T06:16:05.619Z,5.10
2023-01-12T06:17:08.219Z,7.32
2023-01-12T06:18:09.745Z,9.30
2023-01-12T06:19:13.223Z,4.85
2023-01-12T06:20:17.040Z,7.50
2023-01-12T06:21:20.288Z,5.10
2023-01-12T06:22:23.230Z,3.97
2023-01-12T06:23:35.642Z,7.63
2023-01-12T06:24:38.442Z,7.18
2023-01-12T06:25:39.994Z,2.55
2023-01-12T06:26:45.023Z,3.78
2023-01-12T06:27:46.708Z,10.70
2023-01-12T06:28:49.615Z,5.47
2023-01-12T06:29:52.145Z,10.57
2023-01-12T06:30:56.774Z,6.55
2023-01-12T06:31:59.667Z,5.72
2023-01-12T06:33:02.715Z,4.00
2023-01-12T06:34:07.399Z,7.90
2023-01-12T06:35:18.727Z,6.60
2023-01-12T06:36:23.095Z,11.27
2023-01-12T06:37:35.981Z,5.10
2023-01-12T06:38:40.662Z,6.05
2023-01-12T06:39:43.820Z,1.95
2023-01-12T06:40:47.114Z,2.50
2023-01-12T06:42:07.842Z,4.90
2023-01-12T06:43:10.381Z,5.45
2023-01-12T06:44:11.898Z,7.40
2023-01-12T06:45:14.500Z,9.65
2023-01-12T06:46:16.180Z,5.82
2023-01-12T06:47:18.810Z,6.80
2023-01-12T06:48:22.294Z,6.50
2023-01-12T06:49:23.988Z,5.80
2023-01-12T06:50:26.606Z,11.15
2023-01-12T06:51:28.221Z,2.35
2023-01-12T06:52:30.705Z,7.55
2023-01-12T06:53:33.651Z,4.32
2023-01-12T06:54:36.315Z,6.28
2023-01-12T06:55:39.109Z,8.95
2023-01-12T06:56:40.669Z,2.80
2023-01-12T06:57:43.222Z,7.97
2023-01-12T06:58:44.869Z,12.20
2023-01-12T06:59:47.441Z,5.90
2023-01-12T07:00:49.078Z,5.32
2023-01-12T07:01:51.756Z,5.68
2023-01-12T07:02:53.656Z,5.75
2023-01-12T07:03:56.157Z,4.55
2023-01-12T07:04:58.635Z,7.07
2023-01-12T07:06:01.128Z,4.63
2023-01-12T07:07:07.627Z,5.93
2023-01-12T07:08:11.080Z,9.35
2023-01-12T07:09:15.585Z,6.97
2023-01-12T07:10:18.437Z,2.88
2023-01-12T07:11:20.791Z,8.85
2023-01-12T07:12:23.410Z,6.72
2023-01-12T07:13:25.902Z,4.40
2023-01-12T07:14:27.613Z,4.53
2023-01-12T07:15:30.444Z,7.20
2023-01-12T07:16:33.343Z,7.20
2023-01-12T07:17:35.888Z,7.05
2023-01-12T07:18:37.510Z,8.65
2023-01-12T07:19:41.558Z,8.43
2023-01-12T07:20:43.246Z,7.97
2023-01-12T07:21:45.910Z,8.63
2023-01-12T07:22:47.454Z,9.55
2023-01-12T07:23:50.251Z,7.55
2023-01-12T07:24:53.145Z,7.32
2023-01-12T07:25:57.742Z,7.47
2023-01-12T07:26:59.418Z,7.45
2023-01-12T07:28:01.927Z,7.18
2023-01-12T07:29:03.594Z,6.68
2023-01-12T07:30:07.079Z,5.32
2023-01-12T07:31:09.193Z,6.80
2023-01-12T07:32:11.843Z,4.47
2023-01-12T07:33:15.727Z,2.53
2023-01-12T07:34:19.265Z,6.53
2023-01-12T07:35:21.610Z,4.38
2023-01-12T07:36:25.554Z,6.22
2023-01-12T07:37:27.066Z,3.72
2023-01-12T07:38:31.886Z,6.53
2023-01-12T07:39:34.636Z,5.60
2023-01-12T07:40:39.707Z,10.00
2023-01-12T07:42:00.077Z,3.65
2023-01-12T07:43:02.741Z,2.47
2023-01-12T07:44:13.161Z,5.00
2023-01-12T07:45:14.830Z,7.22
2023-01-12T07:46:17.577Z,7.35
2023-01-12T07:47:19.207Z,7.38
2023-01-12T07:48:22.353Z,4.60
2023-01-12T07:49:23.887Z,5.10
2023-01-12T07:50:36.821Z,8.65
2023-01-12T07:51:39.571Z,10.52
2023-01-12T07:52:42.123Z,5.20
2023-01-12T07:53:43.744Z,5.22
2023-01-12T07:54:46.213Z,4.72
2023-01-12T07:55:49.077Z,4.35
2023-01-12T07:56:51.614Z,8.25
2023-01-12T07:57:54.817Z,3.38
2023-01-12T07:58:57.849Z,7.28
2023-01-12T08:00:00.577Z,8.25
2023-01-12T08:01:05.660Z,6.47
2023-01-12T08:02:16.419Z,3.08
2023-01-12T08:03:19.049Z,11.13
2023-01-12T08:04:23.016Z,7.13
2023-01-12T08:05:24.562Z,7.88
2023-01-12T14:28:01.933Z,2.42
2023-01-12T14:29:03.567Z,1.95
2023-01-12T14:30:13.038Z,2.05
2023-01-12T14:31:19.514Z,3.92
2023-01-12T14:32:23.498Z,2.42
2023-01-12T14:33:27.104Z,3.95
2023-01-12T14:34:33.278Z,1.90
2023-01-12T14:35:35.807Z,3.35
2023-01-12T14:36:44.049Z,2.35
2023-01-12T14:37:52.590Z,3.80
2023-01-12T14:38:59.063Z,2.13
2023-01-12T14:40:02.749Z,4.07
2023-01-12T14:41:28.610Z,3.60
2023-01-12T14:43:26.583Z,2.55
2023-01-12T14:45:02.725Z,3.45
2023-01-12T14:46:22.317Z,3.00
2023-01-12T14:47:26.426Z,2.53
2023-01-12T14:48:31.142Z,3.40
2023-01-12T14:49:35.128Z,3.55
2023-01-12T14:50:36.815Z,2.83
2023-01-12T14:51:40.057Z,5.15
2023-01-12T14:52:43.343Z,3.08
2023-01-12T14:53:47.401Z,3.97
2023-01-12T14:54:49.072Z,2.00
2023-01-12T14:55:51.940Z,2.17
2023-01-12T14:56:59.515Z,3.55
2023-01-12T14:58:04.895Z,2.60
2023-01-12T14:59:13.736Z,1.80
2023-01-12T15:00:26.514Z,3.05
2023-01-12T15:01:32.449Z,3.40
2023-01-12T15:02:37.399Z,3.17
2023-01-12T15:03:46.394Z,6.15
2023-01-12T15:04:57.154Z,4.93
2023-01-12T15:05:59.183Z,3.30
2023-01-12T15:07:04.212Z,3.85
2023-01-12T15:08:23.341Z,2.08
2023-01-12T15:09:29.205Z,4.95
2023-01-12T15:10:33.248Z,2.47
2023-01-12T15:11:37.434Z,2.15
2023-01-12T15:12:47.094Z,3.78
2023-01-12T15:13:57.542Z,7.55
2023-01-12T15:15:15.716Z,3.08
2023-01-12T15:16:37.349Z,5.85
2023-01-12T15:17:58.543Z,3.00
2023-01-12T15:19:18.986Z,1.98
2023-01-12T15:20:44.310Z,2.42
2023-01-12T15:22:04.881Z,2.85
2023-01-12T15:23:29.288Z,2.50
2023-01-12T15:24:53.550Z,3.30
2023-01-12T15:25:57.026Z,2.60
2023-01-12T15:27:06.149Z,7.15
2023-01-12T15:28:09.392Z,2.13
2023-01-12T15:29:10.932Z,4.53
2023-01-12T15:30:14.064Z,2.40
2023-01-12T15:31:27.921Z,3.08
2023-01-12T15:32:51.397Z,2.03
2023-01-12T15:33:54.050Z,2.92
2023-01-12T15:34:56.085Z,2.85
2023-01-12T15:35:59.178Z,2.75
2023-01-12T15:37:14.756Z,1.73
2023-01-12T15:38:18.041Z,2.13
2023-01-12T15:39:29.755Z,2.45
2023-01-12T15:40:34.841Z,3.42
2023-01-12T15:41:57.696Z,4.90
2023-01-12T15:43:04.729Z,5.82
2023-01-12T15:44:11.886Z,2.70
2023-01-12T15:45:32.571Z,3.63
2023-01-12T15:46:37.138Z,2.38
2023-01-12T15:47:39.673Z,2.08
2023-01-12T15:48:41.232Z,2.92
2023-01-12T15:49:47.056Z,3.53
2023-01-12T15:50:51.188Z,4.82
2023-01-12T15:51:53.528Z,3.05
2023-01-12T15:52:58.686Z,4.30
2023-01-12T15:54:01.157Z,2.03
2023-01-12T15:55:05.267Z,2.00
2023-01-12T15:56:11.852Z,2.00
2023-01-12T15:57:17.113Z,2.10
2023-01-12T15:58:23.794Z,5.35
2023-01-12T15:59:35.327Z,2.50
2023-01-12T16:00:45.700Z,4.60
2023-01-12T16:01:58.925Z,2.65
2023-01-12T16:03:01.962Z,1.50
2023-01-12T16:04:41.578Z,2.25
2023-01-12T16:05:41.153Z,2.65
2023-01-12T16:06:45.348Z,6.00
2023-01-12T16:07:52.108Z,3.38
2023-01-12T16:08:58.456Z,6.65
2023-01-12T16:10:08.018Z,2.08
2023-01-12T16:11:19.043Z,3.45
2023-01-12T16:12:26.433Z,2.10
2023-01-12T16:13:36.535Z,4.43
2023-01-12T16:14:48.473Z,2.55
2023-01-12T16:16:01.017Z,2.42
2023-01-12T16:17:06.659Z,2.95
2023-01-12T16:18:11.897Z,3.30
2023-01-12T16:19:21.154Z,3.47
2023-01-12T16:20:26.312Z,2.30
2023-01-12T16:21:30.229Z,5.80
2023-01-12T16:22:36.321Z,2.80
2023-01-12T16:23:40.594Z,4.78
2023-01-12T16:24:51.903Z,5.68
2023-01-12T16:25:55.559Z,1.70
2023-01-12T16:27:03.303Z,4.47
2023-01-12T16:28:15.816Z,2.85
2023-01-12T16:29:23.775Z,2.33
2023-01-12T16:30:43.740Z,4.40
2023-01-12T16:31:47.907Z,3.30
2023-01-12T16:32:54.155Z,3.47
2023-01-12T16:33:57.444Z,4.63
2023-01-12T16:35:00.620Z,2.50
2023-01-12T16:36:09.047Z,2.92
2023-01-12T16:37:14.824Z,3.78
2023-01-12T16:38:19.382Z,3.53
2023-01-12T16:39:24.589Z,5.13
2023-01-12T16:40:32.600Z,4.55
2023-01-12T16:41:39.753Z,3.40
2023-01-12T16:42:42.285Z,3.63
2023-01-12T16:43:55.696Z,4.40
2023-01-12T16:45:08.884Z,9.68
2023-01-12T16:46:20.432Z,2.72
2023-01-12T16:47:25.896Z,2.53
2023-01-12T16:48:31.604Z,1.55
2023-01-12T16:49:37.689Z,11.35
2023-01-12T16:50:46.125Z,1.98
2023-01-12T16:51:53.792Z,2.25
2023-01-12T16:53:06.309Z,2.13
2023-01-12T16:54:12.685Z,5.90
2023-01-12T16:55:24.307Z,2.75
2023-01-12T16:56:29.711Z,3.20
2023-01-12T16:57:33.737Z,2.13
2023-01-12T16:58:36.341Z,1.40
2023-01-12T16:59:49.527Z,2.67
2023-01-12T17:01:00.617Z,2.45
2023-01-12T17:02:08.227Z,3.03
2023-01-12T17:03:12.572Z,3.60
2023-01-12T17:04:19.655Z,3.95
2023-01-12T17:05:23.227Z,1.77
2023-01-12T17:06:27.242Z,5.47
2023-01-12T17:07:39.914Z,4.72
2023-01-12T17:08:52.793Z,3.55
2023-01-12T17:10:06.350Z,3.55
2023-01-12T17:11:12.844Z,2.00
2023-01-12T17:12:24.497Z,2.92
2023-01-12T17:13:27.970Z,5.53
2023-01-12T17:14:40.606Z,1.50
2023-01-12T17:15:47.390Z,2.42
2023-01-12T17:16:54.495Z,2.67
2023-01-12T17:18:05.022Z,3.00
2023-01-12T17:19:14.615Z,5.00
2023-01-12T17:20:21.328Z,2.15
2023-01-12T17:21:33.163Z,5.57
2023-01-12T17:22:46.129Z,5.38
2023-01-12T17:23:58.715Z,3.38
2023-01-12T17:25:03.292Z,4.90
2023-01-12T17:26:12.918Z,5.55
2023-01-12T17:27:20.304Z,5.60
2023-01-12T17:28:29.716Z,3.17
2023-01-12T17:29:33.732Z,8.43
2023-01-12T17:30:40.299Z,2.05
2023-01-12T17:31:45.217Z,7.60
2023-01-12T17:32:51.487Z,3.22
2023-01-12T17:34:00.254Z,2.45
2023-01-12T17:35:04.331Z,2.85
2023-01-12T17:36:17.540Z,5.03
2023-01-12T17:37:30.317Z,5.50
2023-01-12T17:38:37.496Z,3.50
2023-01-12T17:39:44.181Z,6.40
2023-01-12T17:40:49.630Z,5.40
2023-01-12T17:42:11.234Z,2.95
2023-01-12T17:43:14.833Z,2.30
2023-01-12T17:44:18.902Z,3.83
2023-01-12T17:45:25.091Z,10.18
2023-01-12T17:46:31.457Z,5.82
2023-01-12T17:47:34.234Z,1.42
2023-01-12T17:48:45.797Z,3.90
2023-01-12T17:49:49.917Z,2.65
2023-01-12T17:50:53.071Z,2.95
2023-01-12T17:52:03.374Z,2.65
2023-01-12T17:53:09.352Z,11.65
2023-01-12T17:54:15.160Z,2.28
2023-01-12T17:55:22.141Z,2.95
2023-01-12T17:56:24.700Z,4.57
2023-01-12T17:57:29.795Z,2.22
2023-01-12T17:58:37.529Z,1.70
2023-01-12T17:59:44.525Z,1.80
2023-01-12T18:00:57.058Z,2.38
2023-01-12T18:02:02.018Z,2.35
2023-01-12T18:03:07.721Z,3.35
2023-01-12T18:04:20.306Z,1.42
2023-01-12T18:05:32.831Z,1.63
2023-01-12T18:06:34.475Z,3.53
2023-01-12T18:07:42.744Z,2.65
2023-01-12T18:08:47.896Z,3.13
2023-01-12T18:09:51.638Z,3.80
2023-01-12T18:10:54.771Z,3.13
2023-01-12T18:11:57.526Z,3.67
2023-01-12T18:13:01.047Z,2.17
2023-01-12T18:14:06.868Z,3.28
2023-01-12T18:15:11.013Z,1.70
2023-01-12T18:16:24.125Z,3.70
2023-01-12T18:17:36.623Z,2.85
2023-01-12T18:18:42.402Z,3.25
2023-01-12T18:19:46.551Z,1.95
2023-01-12T18:20:50.695Z,4.57
2023-01-12T18:22:05.771Z,2.45
2023-01-12T18:23:11.882Z,2.20
2023-01-12T18:24:16.237Z,6.80
2023-01-12T18:25:24.059Z,2.50
2023-01-12T18:26:27.527Z,1.83
2023-01-12T18:27:40.067Z,2.33
2023-01-12T18:28:53.224Z,2.38
2023-01-12T18:30:06.826Z,3.83
2023-01-12T18:31:12.509Z,4.05
2023-01-12T18:32:15.440Z,2.17
2023-01-12T18:33:21.075Z,1.88
2023-01-12T18:34:27.846Z,2.00
2023-01-12T18:35:30.707Z,3.65
2023-01-12T18:36:37.728Z,3.75
2023-01-12T18:37:43.530Z,2.13
2023-01-12T18:38:57.453Z,3.08
2023-01-12T18:40:00.403Z,2.78
2023-01-12T18:41:30.967Z,3.42
2023-01-12T18:42:50.914Z,3.35
2023-01-12T18:43:55.487Z,1.38
2023-01-12T18:44:59.419Z,2.25
2023-01-12T18:46:06.228Z,2.00
2023-01-12T18:47:26.544Z,7.43
2023-01-12T18:48:29.201Z,1.90
2023-01-12T18:49:34.647Z,4.80
2023-01-12T18:50:59.582Z,1.45
2023-01-12T18:52:30.385Z,1.40
2023-01-12T18:53:42.888Z,4.20
2023-01-12T18:54:51.607Z,1.77
2023-01-12T18:55:57.153Z,5.30
2023-01-12T18:57:01.549Z,1.95
2023-01-12T18:58:04.079Z,4.20
2023-01-12T18:59:06.049Z,1.40
2023-01-12T19:00:15.603Z,2.33
2023-01-12T19:01:20.596Z,3.88
2023-01-12T19:02:30.205Z,2.10
2023-01-12T19:03:32.039Z,2.65
2023-01-12T19:04:58.040Z,1.92
2023-01-12T19:06:22.508Z,2.72
2023-01-12T19:07:49.872Z,3.00
2023-01-12T19:09:11.272Z,1.70
2023-01-12T19:10:19.874Z,1.40
2023-01-12T19:11:22.248Z,6.78
2023-01-12T19:12:26.404Z,1.95
2023-01-12T19:13:46.358Z,5.60
2023-01-12T19:15:13.601Z,1.50
2023-01-12T19:16:37.362Z,2.35
2023-01-12T19:17:42.077Z,3.75
2023-01-12T19:18:45.130Z,1.55
2023-01-12T19:19:48.946Z,1.55
2023-01-12T19:21:18.327Z,4.75
2023-01-12T19:22:48.673Z,2.40
2023-01-12T19:24:12.550Z,1.67
2023-01-12T19:25:34.272Z,2.33
2023-01-12T19:27:01.607Z,2.72
2023-01-12T19:28:31.220Z,1.65
2023-01-12T19:29:44.918Z,4.00
2023-01-12T19:31:01.580Z,4.30
2023-01-12T19:32:05.394Z,2.80
2023-01-12T19:33:12.355Z,1.20
2023-01-12T19:34:19.769Z,2.45
2023-01-12T19:35:23.239Z,3.50
2023-01-12T19:36:25.785Z,2.22
2023-01-12T19:37:38.344Z,4.88
2023-01-12T19:38:52.391Z,1.40
2023-01-12T19:40:01.937Z,6.32
2023-01-12T19:41:12.620Z,2.35
2023-01-12T19:42:36.489Z,1.60
2023-01-12T19:43:45.280Z,1.83
2023-01-12T19:44:50.018Z,1.55
2023-01-12T19:45:59.516Z,5.65
2023-01-12T19:47:01.080Z,5.28
2023-01-12T19:48:04.246Z,4.70
2023-01-12T19:49:05.773Z,5.25
2023-01-12T19:50:09.703Z,2.33
2023-01-12T19:51:22.225Z,4.10
2023-01-12T19:52:29.323Z,2.28
2023-01-12T19:53:32.464Z,1.90
2023-01-12T19:54:36.367Z,2.08
2023-01-12T19:55:41.951Z,3.92
2023-01-12T19:56:47.469Z,1.70
2023-01-12T19:57:54.686Z,4.78
2023-01-12T19:58:57.515Z,2.38
2023-01-12T20:00:02.148Z,3.78
2023-01-12T20:01:09.382Z,1.40
2023-01-12T20:02:14.886Z,1.33
2023-01-12T20:03:27.407Z,2.88
2023-01-12T20:04:39.202Z,2.10
2023-01-12T20:05:47.133Z,3.45
2023-01-12T20:06:48.867Z,3.45
2023-01-12T20:07:54.966Z,1.45
2023-01-12T20:08:58.285Z,2.15
2023-01-12T20:10:03.330Z,1.63
2023-01-12T20:11:06.646Z,1.40
2023-01-12T20:12:09.178Z,2.05
2023-01-12T20:13:15.301Z,1.58
2023-01-12T20:14:18.527Z,2.85
2023-01-12T20:15:24.347Z,1.30
2023-01-12T20:16:34.785Z,3.33
2023-01-12T20:17:43.795Z,4.55
2023-01-12T20:18:56.812Z,5.57
2023-01-12T20:19:59.334Z,3.30
2023-01-12T20:21:07.702Z,2.40
2023-01-12T20:22:10.716Z,4.75
2023-01-12T20:23:14.807Z,4.50
2023-01-12T20:24:20.256Z,5.13
2023-01-12T20:25:28.227Z,3.20
2023-01-12T20:26:31.825Z,1.40
2023-01-12T20:27:36.134Z,2.38
2023-01-12T20:28:42.464Z,4.18
2023-01-12T20:29:43.994Z,1.98
2023-01-12T20:30:46.592Z,1.65
2023-01-12T20:31:49.920Z,3.80
2023-01-12T20:32:52.975Z,3.10
2023-01-12T20:33:54.502Z,2.03
2023-01-12T20:34:57.142Z,1.30
2023-01-12T20:36:00.836Z,1.30
2023-01-12T20:37:03.452Z,1.48
2023-01-12T20:38:06.755Z,3.95
2023-01-12T20:39:11.361Z,2.15
2023-01-12T20:40:14.857Z,4.35
2023-01-12T20:41:16.401Z,2.20
2023-01-12T20:42:18.895Z,2.00
2023-01-12T20:43:21.473Z,2.05
2023-01-12T20:44:26.060Z,4.28
2023-01-12T20:45:28.688Z,1.17
2023-01-12T20:46:30.314Z,4.88
2023-01-12T20:47:33.565Z,1.73
2023-01-12T20:48:36.197Z,1.55
2023-01-12T20:49:37.709Z,3.95
2023-01-12T20:50:42.839Z,3.08
2023-01-12T20:51:46.678Z,1.30
2023-01-12T20:52:50.909Z,1.55
2023-01-12T20:53:52.728Z,1.63
2023-01-12T20:54:55.538Z,2.20
2023-01-12T20:55:57.974Z,3.17
2023-01-12T20:57:00.499Z,1.05
2023-01-12T20:58:02.024Z,6.78
2023-01-12T20:59:05.677Z,2.35
2023-01-12T21:00:12.500Z,2.00
2023-01-12T21:01:25.324Z,2.75
2023-01-12T21:02:27.428Z,1.77
2023-01-12T21:03:30.013Z,3.45
2023-01-12T21:04:31.931Z,1.95